EDT,Max TemperatureF,Mean TemperatureF,Min TemperatureF,Max Dew PointF,MeanDew PointF,Min DewpointF,Max Humidity, Mean Humidity, Min Humidity, Max Sea Level PressureIn, Mean Sea Level PressureIn, Min Sea Level PressureIn, Max VisibilityMiles, Mean VisibilityMiles, Min VisibilityMiles, Max Wind SpeedMPH, Mean Wind SpeedMPH, Max Gust SpeedMPH,PrecipitationIn, CloudCover, Events, WindDirDegrees
2010-10-1,69,62,55,66,55,52,94,93,83,29.75,29.69,29.64,10,8,3,15,7,21,3.12,8,,332
2010-10-2,55,50,44,45,39,36,82,66,47,30.02,29.91,29.78,10,10,10,15,9,23,0.00,3,,337
2010-10-3,55,44,33,41,36,30,93,77,51,30.25,30.19,30.13,10,10,0,12,6,17,0.00,1,,45
2010-10-4,60,50,39,41,38,36,93,72,45,30.29,30.23,30.14,10,10,10,15,3,23,0.00,4,,63
2010-10-5,64,57,50,48,44,37,82,66,51,30.13,30.09,30.02,10,10,10,13,5,21,0.00,8,,67
2010-10-6,57,54,51,48,47,43,88,77,63,30.08,29.98,29.82,10,10,5,16,7,24,0.48,8,,165
2010-10-7,60,54,48,46,45,39,93,82,45,29.61,29.53,29.48,10,8,3,18,3,26,0.19,7,,288
2010-10-8,68,54,41,45,40,36,87,61,37,29.83,29.76,29.68,10,9,0,21,7,29,0.00,1,,230
2010-10-9,51,48,44,48,37,30,94,67,44,29.96,29.89,29.80,10,9,0,16,4,25,0.01,2,,337
2010-10-10,60,45,30,34,29,25,93,63,25,29.98,29.85,29.65,10,10,10,13,5,20,0.00,1,,183
2010-10-11,60,48,35,39,36,32,93,65,42,29.80,29.75,29.69,10,10,10,13,4,17,0.00,0,,3
2010-10-12,53,43,33,37,34,30,100,71,41,29.91,29.82,29.79,10,10,0,13,4,18,0.00,3,,358
2010-10-13,57,44,30,37,32,27,93,70,44,30.06,30.01,29.96,10,10,9,12,5,,0.00,0,,90
2010-10-14,62,48,33,39,35,30,93,66,39,30.02,29.93,29.80,10,10,10,17,8,24,0.00,1,,150
2010-10-15,46,42,37,43,39,34,93,89,81,29.70,29.42,29.23,10,8,3,15,5,29,2.14,8,,324
2010-10-16,44,42,39,41,38,36,93,86,76,29.79,29.62,29.44,10,8,4,20,12,30,0.08,8,,331
2010-10-17,57,44,30,45,37,28,100,77,48,29.85,29.78,29.70,10,8,0,16,3,25,0.00,4,,300
2010-10-18,50,42,35,36,31,27,93,61,43,29.89,29.84,29.79,10,10,8,13,4,16,0.00,6,,313
2010-10-19,51,40,30,36,30,25,86,69,50,29.91,29.88,29.83,10,10,10,13,5,,0.00,5,,174
2010-10-20,57,46,35,36,31,28,87,57,33,29.90,29.81,29.72,10,10,10,13,7,17,0.00,1,,179
2010-10-21,50,46,42,43,36,32,87,69,61,29.68,29.53,29.45,10,10,8,17,9,28,0.08,5,,165
2010-10-22,41,39,35,19,19,18,52,47,39,29.99,29.96,29.92,10,10,10,17,12,26,0.00,5,,289
2010-10-23,46,38,30,30,28,19,93,71,48,30.14,30.06,29.97,10,9,2,12,5,,0.01,6,,346
2010-10-24,44,37,32,39,33,27,87,81,66,30.18,30.12,30.01,10,10,9,14,5,17,0.10,7,,140
2010-10-25,55,48,42,48,42,39,87,77,67,30.00,29.90,29.80,10,10,10,18,13,24,0.00,2,,139
2010-10-26,69,60,51,57,54,50,100,84,60,29.89,29.83,29.75,10,8,1,15,5,,0.35,6,,159
2010-10-27,64,60,55,63,58,50,94,86,68,29.84,29.81,29.76,10,9,2,20,11,28,0.75,7,,136
2010-10-28,66,56,46,45,37,30,87,55,26,29.86,29.76,29.70,10,10,10,28,11,38,0.00,3,,206
2010-10-29,48,44,41,41,37,36,87,72,62,29.90,29.87,29.84,10,10,8,14,5,28,0.08,8,,287
2010-10-30,46,40,33,37,30,25,81,65,53,29.96,29.88,29.75,10,10,8,17,8,25,0.01,7,,254
2010-10-31,48,40,33,34,28,19,81,63,46,30.02,29.76,29.58,10,10,10,21,10,31,0.00,8,,315